TAM3333 SBVT-SBGR
Flight info
| Callsign | TAM3333 |
|---|---|
| Flight time | 1h 10m |
| Altitude | 34000 |
| Route | USVAG DCT SIDUR DCT EDMUS |
| Aircraft | A321/M-SDE3FGHIRWY/LB1 |
Departure
| Time | 2026-04-30 17:44 |
|---|---|
| Airport | Eurico de Aguiar Salles International Airport (SBVT) |
Arrival
| Time | 2026-04-30 18:55 |
|---|---|
| Airport | São Paulo/Guarulhos–Governor André Franco Montoro International Airport (SBGR) |
| Time | Latitude | Longitude | Altitude | Speed | Heading |
|---|---|---|---|---|---|
| 2026-04-30 17:39 | -20.26429 | -40.28053 | 19 ft | 10 kts | 0° |
| 2026-04-30 17:41 | -20.25725 | -40.28154 | 18 ft | 14 kts | 352° |
| 2026-04-30 17:42 | -20.25518 | -40.28186 | 18 ft | 15 kts | 352° |
| 2026-04-30 17:42 | -20.25223 | -40.28102 | 17 ft | 15 kts | 31° |
| 2026-04-30 17:43 | -20.25170 | -40.28060 | 17 ft | 0 kts | 96° |
| 2026-04-30 17:44 | -20.25867 | -40.27958 | 18 ft | 125 kts | 172° |
| 2026-04-30 17:44 | -20.29140 | -40.27465 | 1191 ft | 167 kts | 169° |
| 2026-04-30 17:46 | -20.36306 | -40.26703 | 2575 ft | 247 kts | 201° |
| 2026-04-30 17:47 | -20.38334 | -40.33150 | 5047 ft | 254 kts | 266° |
| 2026-04-30 17:48 | -20.39026 | -40.40788 | 7628 ft | 265 kts | 265° |
| 2026-04-30 17:48 | -20.39618 | -40.46960 | 8890 ft | 295 kts | 264° |
| 2026-04-30 17:49 | -20.40466 | -40.55833 | 10734 ft | 319 kts | 264° |
| 2026-04-30 17:50 | -20.44828 | -40.63889 | 12446 ft | 337 kts | 214° |
| 2026-04-30 17:51 | -20.50707 | -40.68153 | 13855 ft | 344 kts | 215° |
| 2026-04-30 17:52 | -20.56670 | -40.72549 | 15101 ft | 353 kts | 216° |
| 2026-04-30 17:53 | -20.66938 | -40.80154 | 17103 ft | 365 kts | 217° |
| 2026-04-30 17:54 | -20.73484 | -40.88353 | 18684 ft | 367 kts | 238° |
| 2026-04-30 17:55 | -20.79174 | -40.97534 | 20164 ft | 376 kts | 238° |
| 2026-04-30 17:56 | -20.85027 | -41.06941 | 21674 ft | 384 kts | 238° |
| 2026-04-30 17:57 | -20.89495 | -41.14127 | 22768 ft | 390 kts | 239° |
| 2026-04-30 17:58 | -20.94010 | -41.21401 | 23845 ft | 395 kts | 238° |
| 2026-04-30 17:59 | -21.00146 | -41.31292 | 25234 ft | 402 kts | 238° |
| 2026-04-30 18:00 | -21.06373 | -41.41345 | 26574 ft | 408 kts | 239° |
| 2026-04-30 18:00 | -21.11073 | -41.48949 | 27509 ft | 412 kts | 239° |
| 2026-04-30 18:01 | -21.14248 | -41.54094 | 28098 ft | 416 kts | 239° |
| 2026-04-30 18:02 | -21.19053 | -41.61884 | 28965 ft | 420 kts | 239° |
| 2026-04-30 18:02 | -21.23902 | -41.69760 | 29859 ft | 424 kts | 239° |
| 2026-04-30 18:03 | -21.28760 | -41.77659 | 30808 ft | 425 kts | 239° |
| 2026-04-30 18:04 | -21.33593 | -41.85529 | 32028 ft | 418 kts | 238° |
| 2026-04-30 18:05 | -21.39997 | -41.95975 | 33096 ft | 421 kts | 238° |
| 2026-04-30 18:06 | -21.46441 | -42.06501 | 34067 ft | 425 kts | 238° |
| 2026-04-30 18:07 | -21.53058 | -42.17337 | 34051 ft | 441 kts | 238° |
| 2026-04-30 18:08 | -21.58112 | -42.25619 | 34050 ft | 442 kts | 238° |
| 2026-04-30 18:10 | -21.71529 | -42.47690 | 34071 ft | 442 kts | 238° |
| 2026-04-30 18:11 | -21.83259 | -42.67054 | 34097 ft | 441 kts | 239° |
| 2026-04-30 18:13 | -21.91608 | -42.80882 | 34108 ft | 439 kts | 239° |
| 2026-04-30 18:14 | -21.99893 | -42.94640 | 34101 ft | 440 kts | 239° |
| 2026-04-30 18:15 | -22.09864 | -43.11237 | 34117 ft | 440 kts | 239° |
| 2026-04-30 18:16 | -22.16484 | -43.22293 | 34117 ft | 439 kts | 239° |
| 2026-04-30 18:17 | -22.19767 | -43.27780 | 34112 ft | 438 kts | 239° |
| 2026-04-30 18:18 | -22.24715 | -43.36060 | 34101 ft | 437 kts | 239° |
| 2026-04-30 18:18 | -22.28004 | -43.41576 | 34091 ft | 437 kts | 239° |
| 2026-04-30 18:19 | -22.31293 | -43.47095 | 34085 ft | 437 kts | 239° |
| 2026-04-30 18:19 | -22.34579 | -43.52616 | 34077 ft | 437 kts | 239° |
| 2026-04-30 18:20 | -22.37862 | -43.58135 | 34083 ft | 437 kts | 239° |
| 2026-04-30 18:20 | -22.41138 | -43.63650 | 34092 ft | 436 kts | 239° |
| 2026-04-30 18:21 | -22.44400 | -43.69149 | 34100 ft | 436 kts | 239° |
| 2026-04-30 18:21 | -22.47665 | -43.74653 | 34105 ft | 435 kts | 239° |
| 2026-04-30 18:22 | -22.50925 | -43.80158 | 34106 ft | 434 kts | 239° |
| 2026-04-30 18:22 | -22.55784 | -43.88376 | 34081 ft | 435 kts | 239° |
| 2026-04-30 18:23 | -22.59034 | -43.93880 | 34070 ft | 434 kts | 239° |
| 2026-04-30 18:23 | -22.62283 | -43.99387 | 34075 ft | 434 kts | 240° |
| 2026-04-30 18:24 | -22.67132 | -44.07623 | 34098 ft | 433 kts | 240° |
| 2026-04-30 18:25 | -22.70366 | -44.13123 | 34118 ft | 433 kts | 240° |
| 2026-04-30 18:25 | -22.75033 | -44.21473 | 34166 ft | 431 kts | 244° |
| 2026-04-30 18:26 | -22.78683 | -44.30327 | 34184 ft | 429 kts | 249° |
| 2026-04-30 18:27 | -22.82058 | -44.39301 | 34177 ft | 429 kts | 249° |
| 2026-04-30 18:28 | -22.85431 | -44.48291 | 34164 ft | 430 kts | 249° |
| 2026-04-30 18:28 | -22.88788 | -44.57251 | 34167 ft | 429 kts | 249° |
| 2026-04-30 18:29 | -22.93265 | -44.69234 | 34195 ft | 429 kts | 250° |
| 2026-04-30 18:30 | -22.97629 | -44.80944 | 34207 ft | 428 kts | 250° |
| 2026-04-30 18:31 | -23.00955 | -44.89889 | 33958 ft | 430 kts | 250° |
| 2026-04-30 18:32 | -23.03183 | -44.95882 | 32648 ft | 427 kts | 250° |
| 2026-04-30 18:32 | -23.04285 | -44.98854 | 32068 ft | 424 kts | 250° |
| 2026-04-30 18:32 | -23.06468 | -45.04749 | 30856 ft | 419 kts | 250° |
| 2026-04-30 18:33 | -23.07550 | -45.07674 | 30242 ft | 417 kts | 250° |
| 2026-04-30 18:33 | -23.09698 | -45.13484 | 28983 ft | 414 kts | 251° |
| 2026-04-30 18:33 | -23.10757 | -45.16355 | 28457 ft | 409 kts | 251° |
| 2026-04-30 18:34 | -23.11802 | -45.19187 | 28058 ft | 401 kts | 251° |
| 2026-04-30 18:34 | -23.13838 | -45.24715 | 27252 ft | 389 kts | 251° |
| 2026-04-30 18:34 | -23.14819 | -45.27382 | 26859 ft | 384 kts | 251° |
| 2026-04-30 18:35 | -23.15801 | -45.30053 | 26464 ft | 379 kts | 251° |
| 2026-04-30 18:35 | -23.16784 | -45.32732 | 26068 ft | 385 kts | 251° |
| 2026-04-30 18:35 | -23.17756 | -45.35439 | 25734 ft | 385 kts | 252° |
| 2026-04-30 18:36 | -23.19018 | -45.41032 | 25086 ft | 379 kts | 263° |
| 2026-04-30 18:36 | -23.19282 | -45.43873 | 24766 ft | 378 kts | 266° |
| 2026-04-30 18:36 | -23.19660 | -45.49540 | 24122 ft | 375 kts | 266° |
| 2026-04-30 18:37 | -23.19842 | -45.52358 | 23800 ft | 373 kts | 266° |
| 2026-04-30 18:37 | -23.20023 | -45.55167 | 23476 ft | 372 kts | 266° |
| 2026-04-30 18:37 | -23.20202 | -45.57926 | 23159 ft | 370 kts | 266° |
| 2026-04-30 18:37 | -23.20382 | -45.60714 | 22840 ft | 369 kts | 266° |
| 2026-04-30 18:38 | -23.20562 | -45.63491 | 22521 ft | 368 kts | 266° |
| 2026-04-30 18:38 | -23.20741 | -45.66265 | 22198 ft | 367 kts | 266° |
| 2026-04-30 18:38 | -23.20918 | -45.69008 | 21886 ft | 365 kts | 267° |
| 2026-04-30 18:38 | -23.21096 | -45.71773 | 21570 ft | 364 kts | 266° |
| 2026-04-30 18:39 | -23.21272 | -45.74517 | 21254 ft | 363 kts | 266° |
| 2026-04-30 18:39 | -23.21447 | -45.77254 | 20939 ft | 362 kts | 267° |
| 2026-04-30 18:39 | -23.21618 | -45.79942 | 20630 ft | 361 kts | 266° |
| 2026-04-30 18:39 | -23.21791 | -45.82673 | 20313 ft | 360 kts | 266° |
| 2026-04-30 18:40 | -23.21962 | -45.85384 | 20000 ft | 359 kts | 266° |
| 2026-04-30 18:40 | -23.22133 | -45.88086 | 19664 ft | 358 kts | 266° |
| 2026-04-30 18:40 | -23.22303 | -45.90778 | 19326 ft | 357 kts | 266° |
| 2026-04-30 18:40 | -23.22472 | -45.93467 | 18989 ft | 357 kts | 266° |
| 2026-04-30 18:41 | -23.22640 | -45.96151 | 18658 ft | 356 kts | 266° |
| 2026-04-30 18:41 | -23.22808 | -45.98830 | 18317 ft | 355 kts | 266° |
| 2026-04-30 18:41 | -23.22972 | -46.01469 | 17986 ft | 354 kts | 266° |
| 2026-04-30 18:41 | -23.23138 | -46.04131 | 17661 ft | 353 kts | 266° |
| 2026-04-30 18:42 | -23.23303 | -46.06786 | 17346 ft | 352 kts | 266° |
| 2026-04-30 18:42 | -23.23630 | -46.12074 | 16683 ft | 348 kts | 266° |
| 2026-04-30 18:42 | -23.23793 | -46.14695 | 16188 ft | 348 kts | 266° |
| 2026-04-30 18:45 | -23.25345 | -46.40327 | 11716 ft | 332 kts | 267° |
| 2026-04-30 18:45 | -23.25494 | -46.42821 | 11284 ft | 330 kts | 266° |
| 2026-04-30 18:45 | -23.25640 | -46.45295 | 10841 ft | 327 kts | 266° |
| 2026-04-30 18:46 | -23.25785 | -46.47749 | 10422 ft | 323 kts | 266° |
| 2026-04-30 18:46 | -23.25927 | -46.50147 | 10233 ft | 312 kts | 266° |
| 2026-04-30 18:46 | -23.26064 | -46.52469 | 10154 ft | 297 kts | 266° |
| 2026-04-30 18:46 | -23.26191 | -46.54620 | 10142 ft | 281 kts | 266° |
| 2026-04-30 18:47 | -23.26314 | -46.56690 | 10052 ft | 269 kts | 266° |
| 2026-04-30 18:47 | -23.26625 | -46.58651 | 9854 ft | 261 kts | 246° |
| 2026-04-30 18:47 | -23.27775 | -46.60127 | 9584 ft | 258 kts | 215° |
| 2026-04-30 18:47 | -23.29303 | -46.61135 | 9306 ft | 255 kts | 212° |
| 2026-04-30 18:48 | -23.30822 | -46.62132 | 8977 ft | 254 kts | 212° |
| 2026-04-30 18:48 | -23.32299 | -46.63132 | 8644 ft | 253 kts | 213° |
| 2026-04-30 18:48 | -23.33526 | -46.63981 | 8363 ft | 253 kts | 214° |
| 2026-04-30 18:48 | -23.35020 | -46.65028 | 8030 ft | 253 kts | 214° |
| 2026-04-30 18:49 | -23.36479 | -46.66060 | 7830 ft | 246 kts | 214° |
| 2026-04-30 18:49 | -23.37889 | -46.67062 | 7661 ft | 237 kts | 214° |
| 2026-04-30 18:49 | -23.39250 | -46.68029 | 7500 ft | 229 kts | 214° |
| 2026-04-30 18:49 | -23.40567 | -46.68966 | 7336 ft | 220 kts | 214° |
| 2026-04-30 18:50 | -23.41918 | -46.69657 | 7110 ft | 216 kts | 186° |
| 2026-04-30 18:50 | -23.43359 | -46.69330 | 6780 ft | 216 kts | 144° |
| 2026-04-30 18:50 | -23.44351 | -46.68106 | 6459 ft | 215 kts | 121° |
| 2026-04-30 18:50 | -23.45011 | -46.66946 | 6199 ft | 215 kts | 122° |
| 2026-04-30 18:51 | -23.45696 | -46.65780 | 5946 ft | 214 kts | 123° |
| 2026-04-30 18:51 | -23.46538 | -46.64393 | 5661 ft | 212 kts | 124° |
| 2026-04-30 18:51 | -23.47180 | -46.62958 | 5322 ft | 214 kts | 98° |
| 2026-04-30 18:51 | -23.47068 | -46.61344 | 4881 ft | 220 kts | 75° |
| 2026-04-30 18:52 | -23.46589 | -46.59742 | 4535 ft | 220 kts | 71° |
| 2026-04-30 18:52 | -23.46114 | -46.58230 | 4309 ft | 203 kts | 73° |
| 2026-04-30 18:52 | -23.45716 | -46.56826 | 4050 ft | 189 kts | 75° |
| 2026-04-30 18:52 | -23.45355 | -46.55486 | 3771 ft | 177 kts | 76° |
| 2026-04-30 18:53 | -23.45024 | -46.54248 | 3532 ft | 163 kts | 76° |
| 2026-04-30 18:53 | -23.44713 | -46.53095 | 3327 ft | 157 kts | 76° |
| 2026-04-30 18:53 | -23.44398 | -46.51966 | 3156 ft | 157 kts | 76° |
| 2026-04-30 18:53 | -23.44086 | -46.50815 | 2953 ft | 156 kts | 77° |
| 2026-04-30 18:54 | -23.43794 | -46.49692 | 2764 ft | 156 kts | 77° |
| 2026-04-30 18:54 | -23.43490 | -46.48564 | 2568 ft | 155 kts | 77° |
| 2026-04-30 18:54 | -23.43192 | -46.47456 | 2469 ft | 138 kts | 74° |
| 2026-04-30 18:54 | -23.42969 | -46.46632 | 2469 ft | 88 kts | 74° |
| 2026-04-30 18:55 | -23.42844 | -46.46167 | 2469 ft | 40 kts | 74° |
| 2026-04-30 18:55 | -23.42720 | -46.46026 | 2470 ft | 12 kts | 343° |
| 2026-04-30 18:55 | -23.42635 | -46.46053 | 2470 ft | 13 kts | 343° |
| 2026-04-30 18:56 | -23.42597 | -46.46207 | 2470 ft | 13 kts | 254° |
| 2026-04-30 18:56 | -23.42624 | -46.46307 | 2470 ft | 13 kts | 253° |
| 2026-04-30 18:56 | -23.42652 | -46.46408 | 2469 ft | 14 kts | 254° |
| 2026-04-30 18:57 | -23.42708 | -46.46617 | 2469 ft | 14 kts | 254° |
| 2026-04-30 18:57 | -23.42737 | -46.46725 | 2469 ft | 14 kts | 254° |
| 2026-04-30 18:57 | -23.42766 | -46.46833 | 2469 ft | 15 kts | 254° |
| 2026-04-30 18:58 | -23.42825 | -46.47049 | 2469 ft | 14 kts | 254° |
| 2026-04-30 18:58 | -23.42852 | -46.47149 | 2469 ft | 13 kts | 254° |
| 2026-04-30 18:58 | -23.42877 | -46.47243 | 2469 ft | 12 kts | 253° |
| 2026-04-30 18:59 | -23.42925 | -46.47419 | 2469 ft | 11 kts | 254° |
| 2026-04-30 19:00 | -23.42993 | -46.47672 | 2469 ft | 12 kts | 253° |
| 2026-04-30 19:00 | -23.43018 | -46.47763 | 2468 ft | 12 kts | 254° |
| 2026-04-30 19:00 | -23.43063 | -46.47930 | 2468 ft | 11 kts | 254° |
| 2026-04-30 19:01 | -23.43104 | -46.48087 | 2468 ft | 10 kts | 265° |
| 2026-04-30 19:01 | -23.43058 | -46.48130 | 2468 ft | 10 kts | 352° |
| 2026-04-30 19:02 | -23.42921 | -46.48145 | 2468 ft | 9 kts | 354° |
| 2026-04-30 19:02 | -23.42848 | -46.48188 | 2468 ft | 5 kts | 266° |
| 2026-04-30 19:03 | -23.42851 | -46.48230 | 2468 ft | 0 kts | 266° |